Time;durP1;ratioP1;P1;durP2;ratioP2;P2;SDS_P1;SDS_P2;PMS_P1;PMS_P2;Temp;Humidity;BMP_temperature;BMP_pressure;BME280_temperature;BME280_humidity;BME280_pressure;Samples;Min_cycle;Max_cycle;Signal;HPM_P1;HPM_P2
2022/05/26 00:00:36;;;;;;;;;;;;;;;23.25;48.99;95393.47;2097395;28;1050;-66
2022/05/26 00:01:38;;;;;;;;;;;;;;;23.23;49.08;95391.00;2090220;28;1193;-64
2022/05/26 00:02:41;;;;;;;;;;;;;;;23.24;49.12;95391.81;2097901;28;1057;-64
2022/05/26 00:03:46;;;;;;;;;;;;;;;23.24;49.06;95397.97;2098188;28;1095;-65
2022/05/26 00:04:48;;;;;;;;;;;;;;;23.23;49.10;95392.84;2097929;28;1160;-64
2022/05/26 00:05:51;;;;;;;;;;;;;;;23.22;49.35;95400.09;2098157;28;1510;-64
2022/05/26 00:06:55;;;;;;;;;;;;;;;23.19;49.19;95394.31;2098013;28;1910;-64
2022/05/26 00:07:57;;;;;;;;;;;;;;;23.22;48.98;95385.88;2098008;28;1117;-64
2022/05/26 00:09:00;;;;;;;;;;;;;;;23.22;49.45;95385.88;2097332;28;1132;-65
2022/05/26 00:10:02;;;;;;;;;;;;;;;23.24;49.20;95386.44;2097998;28;1124;-64
2022/05/26 00:11:06;;;;;;;;;;;;;;;23.25;48.98;95388.09;2097852;28;1197;-64
2022/05/26 00:12:08;;;;;;;;;;;;;;;23.26;49.04;95389.75;2093561;28;1210;-64
2022/05/26 00:13:11;;;;;;;;;;;;;;;23.23;49.27;95387.50;2093041;28;1095;-64
2022/05/26 00:14:13;;;;;;;;;;;;;;;23.20;49.39;95382.56;2098054;28;1059;-64
2022/05/26 00:15:16;;;;;;;;;;;;;;;23.19;49.13;95365.69;2097979;28;1045;-65
2022/05/26 00:16:18;;;;;;;;;;;;;;;23.17;49.23;95364.25;2097469;28;1122;-64
2022/05/26 00:17:21;;;;;;;;;;;;;;;23.16;49.52;95366.13;2097866;28;1057;-64
2022/05/26 00:18:23;;;;;;;;;;;;;;;23.19;49.19;95364.81;2098019;28;1044;-64
2022/05/26 00:19:28;;;;;;;;;;;;;;;23.19;49.43;95364.81;2097626;28;1133;-64
2022/05/26 00:20:29;;;;;;;;;;;;;;;23.14;49.33;95378.91;2097965;28;1095;-64
2022/05/26 00:21:32;;;;;;;;;;;;;;;23.13;49.35;95371.06;2097817;28;1129;-64
2022/05/26 00:22:35;;;;;;;;;;;;;;;23.11;49.48;95370.50;2089704;28;1012;-64
2022/05/26 00:23:37;;;;;;;;;;;;;;;23.09;49.55;95373.38;2084806;28;1083;-65
2022/05/26 00:24:41;;;;;;;;;;;;;;;23.11;49.55;95375.84;2084782;28;1040;-64
2022/05/26 00:25:42;;;;;;;;;;;;;;;23.12;49.34;95388.19;2089719;28;1057;-64
2022/05/26 00:26:46;;;;;;;;;;;;;;;23.17;49.41;95399.91;2089700;28;997;-64
2022/05/26 00:27:47;;;;;;;;;;;;;;;23.18;49.37;95395.38;2089755;28;1975;-64
2022/05/26 00:28:50;;;;;;;;;;;;;;;23.16;49.27;95397.44;2089512;28;1180;-64
2022/05/26 00:29:53;;;;;;;;;;;;;;;23.16;49.04;95400.97;2089353;28;1101;-64
2022/05/26 00:30:56;;;;;;;;;;;;;;;23.19;49.18;95399.69;2089496;28;1317;-64
2022/05/26 00:31:58;;;;;;;;;;;;;;;23.19;49.21;95397.00;2089375;28;1099;-64
2022/05/26 00:33:00;;;;;;;;;;;;;;;23.15;49.10;95387.75;2089614;28;1054;-65
2022/05/26 00:34:02;;;;;;;;;;;;;;;23.12;49.19;95383.66;2089696;28;1003;-64
2022/05/26 00:35:08;;;;;;;;;;;;;;;23.10;49.30;95382.22;2085075;28;1063;-64
2022/05/26 00:36:11;;;;;;;;;;;;;;;23.09;49.23;95375.25;2084774;28;1136;-63
2022/05/26 00:37:13;;;;;;;;;;;;;;;23.04;49.33;95367.84;2089463;28;1180;-64
2022/05/26 00:38:15;;;;;;;;;;;;;;;23.02;49.40;95369.91;2089337;28;1205;-65
2022/05/26 00:39:20;;;;;;;;;;;;;;;23.00;49.46;95378.19;2089004;28;1073;-64
2022/05/26 00:40:22;;;;;;;;;;;;;;;22.98;49.54;95384.81;2089495;28;1133;-64
2022/05/26 00:41:26;;;;;;;;;;;;;;;22.99;49.44;95381.91;2089529;28;1067;-64
2022/05/26 00:42:29;;;;;;;;;;;;;;;23.01;49.75;95373.66;2089268;28;1558;-64
2022/05/26 00:43:31;;;;;;;;;;;;;;;22.98;49.63;95368.72;2089348;28;1078;-64
2022/05/26 00:44:34;;;;;;;;;;;;;;;23.01;49.63;95387.03;2089530;28;1671;-65
2022/05/26 00:45:38;;;;;;;;;;;;;;;23.00;49.81;95388.91;2089570;28;1020;-65
2022/05/26 00:46:44;;;;;;;;;;;;;;;22.98;49.68;95374.91;2083774;28;1232;-66
2022/05/26 00:47:47;;;;;;;;;;;;;;;22.96;49.95;95376.16;2087220;28;1910;-67
2022/05/26 00:48:52;;;;;;;;;;;;;;;22.97;49.97;95367.09;2085078;28;1080;-64
2022/05/26 00:49:57;;;;;;;;;;;;;;;22.96;49.73;95382.34;2083657;28;1120;-64
2022/05/26 00:51:01;;;;;;;;;;;;;;;22.99;49.75;95373.88;2083756;28;1189;-65
2022/05/26 00:52:04;;;;;;;;;;;;;;;22.96;49.88;95376.16;2083997;28;975;-65
2022/05/26 00:53:09;;;;;;;;;;;;;;;22.98;49.93;95377.56;2083772;28;1578;-64
2022/05/26 00:54:14;;;;;;;;;;;;;;;22.99;49.64;95378.38;2083677;28;1677;-65
2022/05/26 00:55:18;;;;;;;;;;;;;;;23.00;49.87;95374.69;2083807;28;1121;-66
2022/05/26 00:56:24;;;;;;;;;;;;;;;23.01;49.85;95374.47;2084023;28;1064;-65
2022/05/26 00:57:31;;;;;;;;;;;;;;;23.04;49.76;95372.38;2081333;28;1052;-67
2022/05/26 00:58:36;;;;;;;;;;;;;;;23.04;49.71;95377.75;2079070;28;1081;-65
2022/05/26 00:59:48;;;;;;;;;;;;;;;23.05;49.40;95379.38;2083772;28;1095;-65
2022/05/26 01:00:50;;;;;;;;;;;;;;;23.05;49.44;95374.88;2083459;28;1146;-65
2022/05/26 01:01:53;;;;;;;;;;;;;;;23.07;49.32;95380.00;2083825;28;1339;-64
2022/05/26 01:03:00;;;;;;;;;;;;;;;23.05;49.46;95368.66;2084032;28;1214;-65
2022/05/26 01:04:06;;;;;;;;;;;;;;;23.04;49.36;95367.03;2083873;28;1172;-64
2022/05/26 01:05:10;;;;;;;;;;;;;;;23.04;49.40;95373.22;2083563;28;1697;-65
2022/05/26 01:06:17;;;;;;;;;;;;;;;23.05;49.55;95365.97;2083920;28;1058;-64
2022/05/26 01:07:20;;;;;;;;;;;;;;;23.06;49.57;95367.63;2083898;28;1041;-62
2022/05/26 01:08:24;;;;;;;;;;;;;;;23.04;49.20;95372.38;2083322;28;1976;-65
2022/05/26 01:09:26;;;;;;;;;;;;;;;23.01;49.61;95377.13;2077159;28;1137;-65
2022/05/26 01:10:29;;;;;;;;;;;;;;;23.02;49.69;95380.63;2081563;28;1774;-65
2022/05/26 01:11:32;;;;;;;;;;;;;;;23.01;49.64;95374.47;2083720;28;1205;-65
2022/05/26 01:12:35;;;;;;;;;;;;;;;23.00;49.57;95388.09;2083846;28;1021;-65
2022/05/26 01:13:40;;;;;;;;;;;;;;;22.99;49.67;95379.25;2083712;28;1105;-65
2022/05/26 01:14:46;;;;;;;;;;;;;;;23.02;49.30;95394.03;2083865;28;1075;-65
2022/05/26 01:15:54;;;;;;;;;;;;;;;23.06;49.17;95391.75;2083532;28;1002;-64
2022/05/26 01:17:05;;;;;;;;;;;;;;;23.08;49.34;95386.97;2083773;28;1177;-65
2022/05/26 01:18:10;;;;;;;;;;;;;;;23.09;49.06;95381.41;2083628;28;1173;-65
2022/05/26 01:19:26;;;;;;;;;;;;;;;23.09;49.34;95380.59;2083842;28;1001;-64
2022/05/26 01:20:32;;;;;;;;;;;;;;;23.10;49.23;95385.72;2078868;28;1172;-65
2022/05/26 01:21:37;;;;;;;;;;;;;;;23.11;49.11;95384.72;2079011;28;1100;-65
2022/05/26 01:22:54;;;;;;;;;;;;;;;23.09;49.17;95378.75;2083857;28;1079;-65
2022/05/26 01:24:14;;;;;;;;;;;;;;;23.08;48.91;95389.66;2066370;28;1174;-65
2022/05/26 01:25:28;;;;;;;;;;;;;;;22.98;49.35;95390.97;2083829;28;1021;-66
2022/05/26 01:26:49;;;;;;;;;;;;;;;22.94;49.50;95372.88;2083606;28;1196;-65
2022/05/26 01:28:00;;;;;;;;;;;;;;;22.93;49.22;95384.63;2083890;28;1111;-65
2022/05/26 01:29:14;;;;;;;;;;;;;;;22.97;49.19;95386.66;2083624;28;1980;-65
2022/05/26 01:30:20;;;;;;;;;;;;;;;22.92;49.23;95383.81;2082967;28;1384;-65
2022/05/26 01:31:33;;;;;;;;;;;;;;;22.92;49.49;95389.16;2083567;28;1129;-65
2022/05/26 01:32:41;;;;;;;;;;;;;;;22.91;49.50;95387.53;2078742;28;1195;-65
2022/05/26 01:33:48;;;;;;;;;;;;;;;22.90;49.54;95393.09;2083587;28;1117;-65
2022/05/26 01:34:55;;;;;;;;;;;;;;;22.90;49.33;95404.63;2083553;28;1538;-65
2022/05/26 01:36:02;;;;;;;;;;;;;;;22.91;49.22;95403.63;2083873;28;1371;-65
2022/05/26 01:37:10;;;;;;;;;;;;;;;22.91;49.31;95403.63;2083735;28;1055;-65
2022/05/26 01:38:20;;;;;;;;;;;;;;;22.90;49.43;95399.28;2083243;28;1341;-64
2022/05/26 01:39:23;;;;;;;;;;;;;;;22.88;49.35;95397.84;2083850;28;1095;-64
2022/05/26 01:40:29;;;;;;;;;;;;;;;22.88;49.61;95395.16;2083355;28;1133;-65
2022/05/26 01:41:38;;;;;;;;;;;;;;;22.90;49.24;95399.28;2083780;28;1006;-65
2022/05/26 01:42:46;;;;;;;;;;;;;;;22.92;49.16;95413.28;2083599;28;1318;-65
2022/05/26 01:43:53;;;;;;;;;;;;;;;22.93;49.35;95409.56;2075601;28;1098;-65
2022/05/26 01:44:58;;;;;;;;;;;;;;;22.96;49.44;95413.66;2083361;28;1139;-67
2022/05/26 01:46:03;;;;;;;;;;;;;;;22.96;49.44;95419.03;2083595;28;1124;-65
2022/05/26 01:47:11;;;;;;;;;;;;;;;22.96;48.97;95433.28;2083465;28;1187;-65
2022/05/26 01:48:16;;;;;;;;;;;;;;;22.96;49.14;95429.75;2083602;28;1009;-65
2022/05/26 01:49:22;;;;;;;;;;;;;;;22.95;49.16;95428.94;2083402;28;1973;-65
2022/05/26 01:50:29;;;;;;;;;;;;;;;22.97;49.14;95416.16;2083183;28;1197;-65
2022/05/26 01:51:32;;;;;;;;;;;;;;;22.94;49.22;95421.94;2083554;28;1137;-65
2022/05/26 01:52:41;;;;;;;;;;;;;;;22.91;49.19;95422.38;2083005;28;1097;-65
2022/05/26 01:53:51;;;;;;;;;;;;;;;22.85;49.47;95417.88;2083581;28;1013;-64
2022/05/26 01:54:56;;;;;;;;;;;;;;;22.81;49.51;95413.97;2076484;28;1133;-65
2022/05/26 01:56:02;;;;;;;;;;;;;;;22.82;49.56;95415.59;2082810;28;1339;-65
2022/05/26 01:57:06;;;;;;;;;;;;;;;22.81;49.43;95410.47;2083687;28;1164;-67
2022/05/26 01:58:14;;;;;;;;;;;;;;;22.79;49.65;95403.50;2083516;28;1048;-68
2022/05/26 01:59:18;;;;;;;;;;;;;;;22.81;49.58;95410.47;2084102;28;1119;-68
2022/05/26 02:00:21;;;;;;;;;;;;;;;22.79;49.36;95413.38;2082597;28;1103;-65
2022/05/26 02:01:25;;;;;;;;;;;;;;;22.76;49.38;95420.00;2082938;28;1125;-65
2022/05/26 02:02:31;;;;;;;;;;;;;;;22.81;49.53;95419.34;2083461;28;1109;-65
2022/05/26 02:03:33;;;;;;;;;;;;;;;22.86;49.49;95424.88;2083451;28;1087;-65
2022/05/26 02:04:38;;;;;;;;;;;;;;;22.90;49.40;95415.34;2083635;28;1078;-65
2022/05/26 02:05:42;;;;;;;;;;;;;;;22.85;49.35;95414.38;2079173;28;1062;-65
2022/05/26 02:06:49;;;;;;;;;;;;;;;22.83;49.33;95403.88;2078509;28;1174;-65
2022/05/26 02:07:52;;;;;;;;;;;;;;;22.84;49.29;95404.69;2083042;28;1029;-65
2022/05/26 02:08:57;;;;;;;;;;;;;;;22.82;49.57;95404.06;2083332;28;2005;-65
2022/05/26 02:10:00;;;;;;;;;;;;;;;22.81;49.32;95405.13;2083411;28;1503;-64
2022/05/26 02:11:07;;;;;;;;;;;;;;;22.76;49.53;95409.28;2083192;28;1121;-65
2022/05/26 02:12:13;;;;;;;;;;;;;;;22.69;49.81;95403.09;2083366;28;1122;-65
2022/05/26 02:13:18;;;;;;;;;;;;;;;22.63;49.73;95405.84;2083748;28;1103;-65
2022/05/26 02:14:29;;;;;;;;;;;;;;;22.66;49.66;95403.53;2083381;28;1126;-65
2022/05/26 02:15:34;;;;;;;;;;;;;;;22.70;49.73;95398.56;2082924;28;1114;-65
2022/05/26 02:16:39;;;;;;;;;;;;;;;22.72;49.45;95402.69;2083157;28;1385;-65
2022/05/26 02:17:46;;;;;;;;;;;;;;;22.72;49.35;95405.38;2074166;28;1227;-66
2022/05/26 02:18:53;;;;;;;;;;;;;;;22.71;49.50;95395.72;2083080;28;1288;-65
2022/05/26 02:19:59;;;;;;;;;;;;;;;22.73;49.09;95404.34;2083252;28;1224;-65
2022/05/26 02:21:06;;;;;;;;;;;;;;;22.77;49.06;95410.09;2083037;28;1665;-64
2022/05/26 02:22:15;;;;;;;;;;;;;;;22.83;49.00;95403.88;2082774;28;1173;-61
2022/05/26 02:23:23;;;;;;;;;;;;;;;22.85;49.01;95404.50;2090579;28;1072;-62
2022/05/26 02:24:29;;;;;;;;;;;;;;;22.79;48.91;95398.13;2091705;28;1257;-63
2022/05/26 02:25:32;;;;;;;;;;;;;;;22.73;49.38;95403.50;2091504;28;1013;-63
2022/05/26 02:26:36;;;;;;;;;;;;;;;22.74;49.07;95399.81;2091486;28;1085;-63
2022/05/26 02:27:38;;;;;;;;;;;;;;;22.71;49.39;95408.28;2091358;28;1156;-64
2022/05/26 02:30:01;;;;;;;;;;;;;;;22.72;49.22;95412.59;2089870;28;1462;-64
2022/05/26 02:31:04;;;;;;;;;;;;;;;22.75;49.02;95417.53;2091222;28;1052;-64
2022/05/26 02:32:09;;;;;;;;;;;;;;;22.78;49.05;95425.94;2091323;28;1371;-63
2022/05/26 02:33:14;;;;;;;;;;;;;;;22.80;48.95;95417.72;2091303;28;1128;-64
2022/05/26 02:34:18;;;;;;;;;;;;;;;22.66;49.13;95424.16;2091491;28;1377;-65
2022/05/26 02:35:23;;;;;;;;;;;;;;;22.62;49.43;95420.25;2091345;28;1087;-64
2022/05/26 02:36:27;;;;;;;;;;;;;;;22.34;49.83;95411.53;2091229;28;1113;-63
2022/05/26 02:37:32;;;;;;;;;;;;;;;22.09;50.61;95416.78;2090778;28;1318;-68
2022/05/26 02:38:33;;;;;;;;;;;;;;;22.14;50.54;95421.50;2091153;28;1028;-65
2022/05/26 02:39:36;;;;;;;;;;;;;;;22.12;50.50;95424.38;2089708;28;1036;-68
2022/05/26 02:40:39;;;;;;;;;;;;;;;22.09;50.52;95408.75;2084589;28;1291;-73
2022/05/26 02:41:41;;;;;;;;;;;;;;;22.08;50.30;95420.50;2090880;28;1175;-63
2022/05/26 02:42:47;;;;;;;;;;;;;;;21.90;50.66;95425.66;2091326;28;1068;-66
2022/05/26 02:43:50;;;;;;;;;;;;;;;21.70;51.30;95420.34;2091333;28;1017;-64
2022/05/26 02:44:53;;;;;;;;;;;;;;;21.59;51.52;95429.81;2090854;28;1088;-65
2022/05/26 02:46:06;;;;;;;;;;;;;;;21.43;52.08;95422.25;2091446;28;924;-65
2022/05/26 02:47:21;;;;;;;;;;;;;;;21.31;52.43;95421.22;2091105;28;1268;-66
2022/05/26 02:48:33;;;;;;;;;;;;;;;21.32;52.38;95422.88;2091279;28;1099;-65
2022/05/26 02:49:46;;;;;;;;;;;;;;;21.31;52.48;95416.69;2091234;28;1902;-65
2022/05/26 02:50:55;;;;;;;;;;;;;;;21.30;52.46;95408.88;2091202;28;1097;-65
2022/05/26 02:52:02;;;;;;;;;;;;;;;21.30;52.46;95409.69;2083337;28;1155;-66
2022/05/26 02:53:08;;;;;;;;;;;;;;;21.31;52.38;95406.00;2091149;28;1543;-65
2022/05/26 02:54:20;;;;;;;;;;;;;;;21.28;52.37;95405.59;2091085;28;1192;-65
2022/05/26 02:55:28;;;;;;;;;;;;;;;21.21;52.57;95409.09;2091310;28;1069;-66
2022/05/26 02:56:34;;;;;;;;;;;;;;;21.21;52.40;95419.78;2091072;28;1109;-65
2022/05/26 02:57:40;;;;;;;;;;;;;;;21.18;52.34;95416.69;2091179;28;1699;-65
2022/05/26 02:58:49;;;;;;;;;;;;;;;21.19;52.39;95416.47;2091060;28;1195;-65
2022/05/26 02:59:59;;;;;;;;;;;;;;;21.14;52.60;95418.09;2090742;28;1187;-65
2022/05/26 03:01:04;;;;;;;;;;;;;;;21.09;52.56;95425.94;2091077;28;1187;-66
2022/05/26 03:02:10;;;;;;;;;;;;;;;21.06;52.61;95427.16;2090820;28;1321;-65
2022/05/26 03:03:15;;;;;;;;;;;;;;;21.12;52.67;95429.00;2082170;28;1122;-67
2022/05/26 03:04:21;;;;;;;;;;;;;;;21.14;52.47;95426.97;2090980;28;1147;-68
2022/05/26 03:05:26;;;;;;;;;;;;;;;21.29;52.38;95423.28;2091167;28;1188;-66
2022/05/26 03:06:33;;;;;;;;;;;;;;;21.36;51.92;95429.44;2090691;28;1172;-65
2022/05/26 03:07:38;;;;;;;;;;;;;;;21.28;52.08;95426.97;2090945;28;1211;-65
2022/05/26 03:08:43;;;;;;;;;;;;;;;21.18;52.48;95425.53;2090917;28;1442;-64
2022/05/26 03:09:46;;;;;;;;;;;;;;;21.12;52.42;95429.00;2090890;28;1919;-64
2022/05/26 03:10:50;;;;;;;;;;;;;;;21.16;52.56;95430.22;2090925;28;1125;-64
2022/05/26 03:11:54;;;;;;;;;;;;;;;21.16;52.67;95432.06;2090495;28;1171;-64
2022/05/26 03:12:56;;;;;;;;;;;;;;;21.15;52.44;95433.94;2091043;28;1135;-66
2022/05/26 03:13:59;;;;;;;;;;;;;;;21.25;52.28;95438.06;2086086;28;1013;-64
2022/05/26 03:15:02;;;;;;;;;;;;;;;21.30;52.26;95446.31;2086034;28;1188;-65
2022/05/26 03:16:06;;;;;;;;;;;;;;;21.40;52.11;95446.72;2090935;28;1076;-64
2022/05/26 03:17:08;;;;;;;;;;;;;;;21.51;51.68;95443.41;2091072;28;1184;-64
2022/05/26 03:18:10;;;;;;;;;;;;;;;21.49;51.60;95455.34;2091012;28;1366;-64
2022/05/26 03:19:13;;;;;;;;;;;;;;;21.42;51.85;95445.47;2091273;28;1102;-64
2022/05/26 03:20:17;;;;;;;;;;;;;;;21.47;51.73;95452.88;2090770;28;1129;-64
2022/05/26 03:21:19;;;;;;;;;;;;;;;21.49;51.61;95448.16;2090586;28;1045;-65
2022/05/26 03:22:22;;;;;;;;;;;;;;;21.54;51.78;95445.69;2090694;28;1292;-64
2022/05/26 03:23:24;;;;;;;;;;;;;;;21.50;51.55;95447.13;2091027;28;1102;-65
2022/05/26 03:24:27;;;;;;;;;;;;;;;21.45;51.93;95449.56;2090939;28;1128;-64
2022/05/26 03:25:28;;;;;;;;;;;;;;;21.37;51.83;95441.75;2086262;28;1128;-65
2022/05/26 03:26:32;;;;;;;;;;;;;;;21.34;51.97;95443.03;2086346;28;1124;-64
2022/05/26 03:27:34;;;;;;;;;;;;;;;21.30;52.07;95446.31;2090858;28;1187;-65
2022/05/26 03:28:37;;;;;;;;;;;;;;;21.20;52.20;95455.56;2090857;28;1070;-65
2022/05/26 03:29:39;;;;;;;;;;;;;;;21.28;52.22;95443.00;2090968;28;1080;-69
2022/05/26 03:30:42;;;;;;;;;;;;;;;21.47;51.69;95446.72;2090840;28;1965;-70
2022/05/26 03:31:46;;;;;;;;;;;;;;;21.48;51.82;95446.50;2090975;28;1129;-65
2022/05/26 03:32:47;;;;;;;;;;;;;;;21.35;52.13;95452.69;2090895;28;1020;-65
2022/05/26 03:40:53;;;;;;;;;;;;;;;21.20;52.94;95462.75;2091092;28;1096;-63
2022/05/26 03:41:55;;;;;;;;;;;;;;;21.22;52.66;95458.81;2091011;28;1510;-64
2022/05/26 03:42:58;;;;;;;;;;;;;;;21.32;52.53;95470.97;2090712;28;1167;-64
2022/05/26 03:44:00;;;;;;;;;;;;;;;21.33;52.58;95462.75;2090164;28;1112;-65
2022/05/26 03:45:05;;;;;;;;;;;;;;;21.35;52.42;95462.56;2090355;28;1196;-64
2022/05/26 03:46:06;;;;;;;;;;;;;;;21.22;52.57;95460.69;2090165;28;1068;-64
2022/05/26 03:47:09;;;;;;;;;;;;;;;21.00;53.11;95465.38;2090261;28;1248;-64
2022/05/26 03:48:11;;;;;;;;;;;;;;;21.01;53.28;95456.31;2086263;28;1071;-64
2022/05/26 03:49:14;;;;;;;;;;;;;;;21.00;53.15;95460.03;2086308;28;1016;-63
2022/05/26 03:50:16;;;;;;;;;;;;;;;21.12;52.87;95463.75;2090914;28;1906;-64
2022/05/26 03:51:19;;;;;;;;;;;;;;;21.22;52.62;95461.50;2090620;28;1001;-63
2022/05/26 03:52:23;;;;;;;;;;;;;;;21.32;52.67;95458.44;2090675;28;1188;-64
2022/05/26 03:53:26;;;;;;;;;;;;;;;21.40;52.13;95470.78;2090822;28;1582;-64
2022/05/26 03:54:30;;;;;;;;;;;;;;;21.39;51.93;95469.13;2091112;28;1048;-64
2022/05/26 03:55:33;;;;;;;;;;;;;;;21.32;52.26;95462.97;2090826;28;1176;-64
2022/05/26 03:56:35;;;;;;;;;;;;;;;21.28;52.54;95467.06;2091006;28;1090;-64
2022/05/26 03:57:37;;;;;;;;;;;;;;;21.31;52.37;95464.78;2090904;28;1438;-64
2022/05/26 03:58:40;;;;;;;;;;;;;;;21.24;52.37;95466.66;2090350;28;1245;-64
2022/05/26 03:59:42;;;;;;;;;;;;;;;21.14;52.85;95468.84;2085726;28;1470;-65
2022/05/26 04:00:45;;;;;;;;;;;;;;;21.15;53.02;95471.34;2087133;28;1168;-64
2022/05/26 04:01:47;;;;;;;;;;;;;;;21.17;52.68;95474.69;2090898;28;1129;-64
2022/05/26 04:02:50;;;;;;;;;;;;;;;21.10;52.59;95476.47;2090657;28;1095;-64
2022/05/26 04:03:55;;;;;;;;;;;;;;;21.10;52.58;95481.81;2090736;28;1351;-64
2022/05/26 04:04:58;;;;;;;;;;;;;;;21.04;52.69;95482.63;2090945;28;1060;-64
2022/05/26 04:06:01;;;;;;;;;;;;;;;20.98;52.87;95473.56;2090773;28;1078;-64
2022/05/26 04:07:03;;;;;;;;;;;;;;;20.94;53.06;95480.38;2090893;28;1124;-64
2022/05/26 04:08:08;;;;;;;;;;;;;;;20.90;53.44;95472.94;2090919;28;1103;-65
2022/05/26 04:09:09;;;;;;;;;;;;;;;21.04;53.12;95479.13;2090859;28;1064;-64
2022/05/26 04:10:12;;;;;;;;;;;;;;;20.88;53.36;95475.81;2090961;28;1052;-64
2022/05/26 04:11:15;;;;;;;;;;;;;;;20.84;53.56;95484.44;2081365;28;1969;-64
2022/05/26 04:12:18;;;;;;;;;;;;;;;20.79;53.80;95485.84;2090544;28;989;-64
2022/05/26 04:13:20;;;;;;;;;;;;;;;20.84;53.58;95489.78;2090259;28;984;-63
2022/05/26 04:14:27;;;;;;;;;;;;;;;20.93;53.31;95488.56;2090788;28;1210;-64
2022/05/26 04:15:31;;;;;;;;;;;;;;;21.04;53.02;95487.97;2090899;28;1125;-63
2022/05/26 04:16:33;;;;;;;;;;;;;;;21.01;53.11;95491.88;2090880;28;1089;-63
2022/05/26 04:17:37;;;;;;;;;;;;;;;20.93;53.26;95481.38;2090763;28;993;-64
2022/05/26 04:18:38;;;;;;;;;;;;;;;20.91;53.33;95483.41;2090725;28;1136;-64
2022/05/26 04:19:41;;;;;;;;;;;;;;;21.00;53.20;95489.41;2090875;28;1071;-64
2022/05/26 04:20:43;;;;;;;;;;;;;;;21.05;53.14;95486.94;2090329;28;1419;-64
2022/05/26 04:23:03;;;;;;;;;;;;;;;20.97;53.10;95495.13;2085335;28;1135;-64
2022/05/26 04:24:06;;;;;;;;;;;;;;;21.02;52.94;95495.34;2091562;28;1179;-65
2022/05/26 04:25:10;;;;;;;;;;;;;;;21.06;52.77;95493.94;2092464;28;1265;-64
2022/05/26 04:26:13;;;;;;;;;;;;;;;20.94;53.04;95499.06;2092584;28;1052;-64
2022/05/26 04:27:15;;;;;;;;;;;;;;;20.84;53.49;95495.94;2092337;28;1085;-64
2022/05/26 04:28:21;;;;;;;;;;;;;;;20.90;53.35;95495.13;2091823;28;1184;-64
2022/05/26 04:29:23;;;;;;;;;;;;;;;21.01;53.05;95501.75;2092189;28;1412;-64
2022/05/26 04:30:26;;;;;;;;;;;;;;;20.97;53.07;95505.81;2092278;28;1045;-64
2022/05/26 04:31:28;;;;;;;;;;;;;;;20.95;53.19;95499.88;2092267;28;1910;-63
2022/05/26 04:32:31;;;;;;;;;;;;;;;20.89;53.26;95506.03;2092109;28;1549;-64
2022/05/26 04:33:33;;;;;;;;;;;;;;;20.86;53.41;95501.06;2087661;28;1560;-64
2022/05/26 04:34:37;;;;;;;;;;;;;;;20.88;53.29;95499.03;2087511;28;1191;-65
2022/05/26 04:35:39;;;;;;;;;;;;;;;20.84;53.47;95495.13;2091956;28;1020;-63
2022/05/26 04:36:41;;;;;;;;;;;;;;;20.83;53.42;95502.31;2092259;28;1052;-63
2022/05/26 04:37:45;;;;;;;;;;;;;;;20.97;53.34;95505.81;2092123;28;1292;-64
2022/05/26 04:38:47;;;;;;;;;;;;;;;21.10;53.13;95508.53;2092173;28;1120;-63
2022/05/26 04:39:54;;;;;;;;;;;;;;;21.15;52.70;95498.06;2092242;28;1124;-64
2022/05/26 04:40:56;;;;;;;;;;;;;;;21.09;53.02;95501.56;2092332;28;1080;-65
2022/05/26 04:42:00;;;;;;;;;;;;;;;21.01;53.20;95502.56;2092179;28;1183;-64
2022/05/26 04:43:03;;;;;;;;;;;;;;;21.06;53.24;95509.13;2091721;28;1209;-64
2022/05/26 04:44:06;;;;;;;;;;;;;;;20.93;53.33;95507.25;2092040;28;1373;-63
2022/05/26 04:45:11;;;;;;;;;;;;;;;20.96;53.43;95504.19;2087017;28;1099;-66
2022/05/26 04:46:13;;;;;;;;;;;;;;;20.95;53.64;95502.56;2089883;28;1062;-63
2022/05/26 04:47:17;;;;;;;;;;;;;;;20.96;53.53;95506.88;2091926;28;1244;-63
2022/05/26 04:48:21;;;;;;;;;;;;;;;20.93;53.71;95507.25;2092281;28;1020;-63
2022/05/26 04:49:23;;;;;;;;;;;;;;;20.89;53.89;95508.72;2092019;28;1653;-63
2022/05/26 04:50:26;;;;;;;;;;;;;;;20.82;54.15;95508.66;2091735;28;1155;-63
2022/05/26 04:51:28;;;;;;;;;;;;;;;20.89;53.86;95508.72;2092095;28;1920;-64
2022/05/26 04:52:31;;;;;;;;;;;;;;;20.97;53.74;95514.69;2092188;28;1072;-63
2022/05/26 04:53:33;;;;;;;;;;;;;;;21.00;53.67;95510.78;2092029;28;1099;-63
2022/05/26 04:54:36;;;;;;;;;;;;;;;21.05;53.60;95510.97;2092065;28;1133;-64
2022/05/26 04:55:40;;;;;;;;;;;;;;;21.11;53.36;95510.16;2091977;28;1137;-64
2022/05/26 04:56:42;;;;;;;;;;;;;;;21.19;53.16;95510.00;2082924;28;1115;-64
2022/05/26 04:57:45;;;;;;;;;;;;;;;21.30;52.96;95518.47;2091404;28;1157;-63
2022/05/26 04:58:47;;;;;;;;;;;;;;;21.29;53.02;95503.47;2092019;28;1207;-64
2022/05/26 04:59:51;;;;;;;;;;;;;;;21.19;53.30;95507.34;2091971;28;1168;-64
2022/05/26 05:00:54;;;;;;;;;;;;;;;21.15;53.19;95505.25;2091972;28;1506;-64
2022/05/26 05:01:57;;;;;;;;;;;;;;;21.04;53.76;95504.00;2092121;28;1052;-64
2022/05/26 05:03:00;;;;;;;;;;;;;;;21.04;53.64;95506.69;2091973;28;1165;-64
2022/05/26 05:04:03;;;;;;;;;;;;;;;21.05;53.55;95507.50;2092081;28;1056;-64
2022/05/26 05:05:06;;;;;;;;;;;;;;;21.14;53.46;95509.78;2091655;28;1060;-64
2022/05/26 05:06:08;;;;;;;;;;;;;;;21.18;53.56;95510.22;2092042;28;1068;-64
2022/05/26 05:07:11;;;;;;;;;;;;;;;21.19;53.30;95512.69;2091600;28;1203;-64
2022/05/26 05:08:13;;;;;;;;;;;;;;;21.14;53.41;95506.28;2084589;28;1168;-64
2022/05/26 05:09:16;;;;;;;;;;;;;;;21.11;53.52;95507.50;2091885;28;1141;-63
2022/05/26 05:10:19;;;;;;;;;;;;;;;21.10;53.64;95505.88;2091861;28;1149;-64
2022/05/26 05:11:22;;;;;;;;;;;;;;;21.14;53.52;95506.28;2091879;28;1093;-64
2022/05/26 05:12:26;;;;;;;;;;;;;;;21.12;53.29;95509.16;2091463;28;1549;-64
2022/05/26 05:13:28;;;;;;;;;;;;;;;21.20;53.15;95514.34;2091908;28;1176;-64
2022/05/26 05:14:32;;;;;;;;;;;;;;;21.28;52.96;95512.50;2092070;28;1158;-64
2022/05/26 05:15:38;;;;;;;;;;;;;;;21.34;53.33;95517.88;2091998;28;1079;-63
2022/05/26 05:16:43;;;;;;;;;;;;;;;21.39;52.85;95511.88;2092043;28;996;-63
2022/05/26 05:17:45;;;;;;;;;;;;;;;21.39;52.79;95519.91;2092083;28;1033;-63
2022/05/26 05:18:50;;;;;;;;;;;;;;;21.40;52.99;95516.22;2087573;28;1106;-63
2022/05/26 05:19:53;;;;;;;;;;;;;;;21.45;52.90;95519.94;2086658;28;1120;-63
2022/05/26 05:20:57;;;;;;;;;;;;;;;21.43;52.79;95518.50;2091878;28;1135;-64
2022/05/26 05:22:02;;;;;;;;;;;;;;;21.27;53.18;95522.38;2091798;28;1144;-63
2022/05/26 05:23:09;;;;;;;;;;;;;;;21.22;53.29;95514.94;2091986;28;1009;-64
2022/05/26 05:24:14;;;;;;;;;;;;;;;21.36;52.98;95520.31;2091690;28;1496;-64
2022/05/26 05:25:20;;;;;;;;;;;;;;;21.41;52.99;95520.53;2091886;28;1133;-63
2022/05/26 05:26:24;;;;;;;;;;;;;;;21.44;52.84;95522.81;2091806;28;1183;-64
2022/05/26 05:27:31;;;;;;;;;;;;;;;21.45;52.85;95525.28;2091603;28;1066;-64
2022/05/26 05:28:34;;;;;;;;;;;;;;;21.52;52.79;95524.47;2091919;28;1195;-64
2022/05/26 05:29:38;;;;;;;;;;;;;;;21.55;52.57;95524.88;2091825;28;1479;-64
2022/05/26 05:30:44;;;;;;;;;;;;;;;21.68;52.45;95524.88;2083690;28;1085;-66
2022/05/26 05:31:49;;;;;;;;;;;;;;;21.72;52.48;95529.81;2091418;28;1965;-65
2022/05/26 05:32:55;;;;;;;;;;;;;;;21.70;52.44;95521.16;2091855;28;1113;-63
2022/05/26 05:33:59;;;;;;;;;;;;;;;21.67;52.65;95528.56;2091756;28;1215;-65
2022/05/26 05:35:03;;;;;;;;;;;;;;;21.63;52.68;95526.53;2091312;28;1088;-65
2022/05/26 05:36:06;;;;;;;;;;;;;;;21.72;52.53;95535.97;2091900;28;1071;-64
2022/05/26 05:37:11;;;;;;;;;;;;;;;21.83;52.40;95537.22;2091891;28;1059;-64
2022/05/26 05:38:13;;;;;;;;;;;;;;;21.92;52.37;95538.66;2091920;28;1196;-64
2022/05/26 05:39:16;;;;;;;;;;;;;;;21.94;51.97;95533.91;2091833;28;1048;-63
2022/05/26 05:40:19;;;;;;;;;;;;;;;21.92;52.18;95535.97;2091855;28;1040;-64
2022/05/26 05:41:21;;;;;;;;;;;;;;;21.93;52.25;95542.94;2088580;28;1175;-64
2022/05/26 05:42:26;;;;;;;;;;;;;;;21.96;52.55;95547.09;2086270;28;1051;-64
2022/05/26 05:43:29;;;;;;;;;;;;;;;21.99;52.36;95542.16;2091969;28;1099;-64
2022/05/26 05:44:32;;;;;;;;;;;;;;;22.03;52.28;95542.56;2091615;28;1720;-63
2022/05/26 05:45:35;;;;;;;;;;;;;;;22.09;52.52;95547.09;2091708;28;1121;-64
2022/05/26 05:47:54;;;;;;;;;;;;;;;22.27;51.92;95543.75;2091488;28;1255;-64
2022/05/26 05:48:56;;;;;;;;;;;;;;;22.36;51.67;95547.84;2091841;28;1061;-64
2022/05/26 05:49:59;;;;;;;;;;;;;;;22.41;51.78;95545.38;2091218;28;1128;-64
2022/05/26 05:51:03;;;;;;;;;;;;;;;22.49;51.48;95547.81;2092002;28;1110;-64